createdAt,value
2023-03-11T00:00:32.237Z,58.75
2023-03-11T00:01:36.513Z,58.21
2023-03-11T00:02:40.838Z,58.53
2023-03-11T00:03:45.111Z,58.58
2023-03-11T00:04:49.426Z,59.03
2023-03-11T00:05:53.710Z,58.89
2023-03-11T00:06:57.996Z,58.98
2023-03-11T00:08:02.249Z,58.57
2023-03-11T00:09:06.534Z,59.12
2023-03-11T00:10:10.820Z,58.85
2023-03-11T00:11:15.084Z,59.1
2023-03-11T00:12:19.358Z,58.98
2023-03-11T00:13:23.990Z,58.72
2023-03-11T00:14:28.288Z,59.09
2023-03-11T00:15:32.568Z,58.66
2023-03-11T00:16:37.235Z,59.04
2023-03-11T00:17:41.545Z,59.04
2023-03-11T00:18:45.867Z,59.2
2023-03-11T00:19:50.183Z,59.25
2023-03-11T00:20:54.459Z,58.95
2023-03-11T00:21:58.721Z,58.99
2023-03-11T00:23:03.016Z,58.96
2023-03-11T00:24:07.298Z,59.01
2023-03-11T00:25:11.585Z,58.49
2023-03-11T00:26:15.879Z,58.79
2023-03-11T00:27:20.227Z,59.13
2023-03-11T00:28:24.527Z,59.21
2023-03-11T00:29:28.770Z,58.88
2023-03-11T00:30:33.260Z,59.14
2023-03-11T00:31:37.577Z,58.84
2023-03-11T00:32:42.060Z,59.21
2023-03-11T00:33:46.352Z,59.2
2023-03-11T00:34:50.616Z,58.72
2023-03-11T00:35:55.086Z,59.04
2023-03-11T00:36:59.451Z,58.79
2023-03-11T00:38:03.780Z,59.27
2023-03-11T00:39:08.132Z,59.23
2023-03-11T00:40:12.428Z,58.58
2023-03-11T00:41:16.700Z,58.84
2023-03-11T00:42:20.955Z,59.3
2023-03-11T00:43:25.257Z,59.28
2023-03-11T00:44:29.506Z,59
2023-03-11T00:45:33.829Z,59.07
2023-03-11T00:46:38.360Z,59.29
2023-03-11T00:47:42.766Z,58.76
2023-03-11T00:48:47.053Z,59.07
2023-03-11T00:49:51.343Z,59.28
2023-03-11T00:50:55.649Z,59.28
2023-03-11T00:51:59.927Z,59.15
2023-03-11T00:53:04.221Z,59.22
2023-03-11T00:54:08.519Z,58.31
2023-03-11T00:55:12.888Z,58.37
2023-03-11T00:56:17.180Z,58.81
2023-03-11T00:57:21.503Z,59.1
2023-03-11T00:58:25.791Z,58.88
2023-03-11T00:59:30.058Z,58.71
2023-03-11T01:00:34.328Z,59.28
2023-03-11T01:01:38.915Z,58.66
2023-03-11T01:02:43.257Z,59.38
2023-03-11T01:03:47.536Z,58.88
2023-03-11T01:04:52.099Z,59.29
2023-03-11T01:05:56.439Z,58.75
2023-03-11T01:07:00.752Z,58.62
2023-03-11T01:08:05.044Z,58.77
2023-03-11T01:09:09.318Z,59.07
2023-03-11T01:10:13.615Z,58.45
2023-03-11T01:11:17.974Z,59.37
2023-03-11T01:12:22.231Z,58.84
2023-03-11T01:13:26.491Z,58.49
2023-03-11T01:14:30.785Z,58.16
2023-03-11T01:15:35.498Z,59.09
2023-03-11T01:16:39.790Z,59.29
2023-03-11T01:17:44.046Z,59.42
2023-03-11T01:18:48.281Z,59.32
2023-03-11T01:19:52.561Z,59.16
2023-03-11T01:20:56.845Z,59.13
2023-03-11T01:22:01.146Z,59.45
2023-03-11T01:23:05.414Z,59.29
2023-03-11T01:24:09.734Z,59.5
2023-03-11T01:25:13.980Z,58.49
2023-03-11T01:26:18.293Z,59.16
2023-03-11T01:27:25.750Z,59.58
2023-03-11T01:28:30.036Z,59.7
2023-03-11T01:29:34.285Z,58.56
2023-03-11T01:30:38.529Z,59.32
2023-03-11T01:31:42.851Z,58.73
2023-03-11T01:32:47.459Z,58.78
2023-03-11T01:33:51.766Z,58.44
2023-03-11T01:34:56.068Z,58.85
2023-03-11T01:36:00.558Z,58.56
2023-03-11T01:37:04.906Z,58.87
2023-03-11T01:38:09.145Z,59.36
2023-03-11T01:39:13.448Z,59.75
2023-03-11T01:40:18.731Z,59.5
2023-03-11T01:41:22.998Z,59.67
2023-03-11T01:42:27.362Z,59.82
2023-03-11T01:43:31.621Z,59.58
2023-03-11T01:44:35.872Z,59.79
2023-03-11T01:45:40.241Z,59.74
2023-03-11T01:46:44.646Z,59.69
2023-03-11T01:47:48.963Z,59.31
2023-03-11T01:48:53.260Z,59.52
2023-03-11T01:49:57.546Z,59.54
2023-03-11T01:51:01.838Z,59.64
2023-03-11T01:52:07.409Z,59.41
2023-03-11T01:53:11.739Z,59.82
2023-03-11T01:54:16.014Z,59.85
2023-03-11T01:55:20.406Z,59.66
2023-03-11T01:56:24.663Z,59.75
2023-03-11T01:57:28.934Z,59.58
2023-03-11T01:58:33.276Z,59.52
2023-03-11T01:59:37.581Z,59.4
2023-03-11T02:00:41.853Z,59.71
2023-03-11T02:01:46.303Z,59.58
2023-03-11T02:02:50.785Z,58.94
2023-03-11T02:03:55.121Z,59.63
2023-03-11T02:04:59.388Z,59.51
2023-03-11T02:06:03.711Z,59.42
2023-03-11T02:07:08.015Z,59.63
2023-03-11T02:08:12.264Z,59.43
2023-03-11T02:09:16.558Z,58.87
2023-03-11T02:10:20.832Z,59.64
2023-03-11T02:11:25.093Z,58.72
2023-03-11T02:12:29.372Z,58.77
2023-03-11T02:13:33.619Z,59.47
2023-03-11T02:14:37.912Z,59.19
2023-03-11T02:15:42.471Z,59.37
2023-03-11T02:16:46.782Z,59.26
2023-03-11T02:17:51.078Z,58.34
2023-03-11T02:18:55.342Z,59.46
2023-03-11T02:19:59.663Z,59.34
2023-03-11T02:21:03.997Z,58.72
2023-03-11T02:22:08.350Z,59.3
2023-03-11T02:23:12.627Z,59.4
2023-03-11T02:24:16.991Z,58.77
2023-03-11T02:25:21.460Z,58.2
2023-03-11T02:26:25.762Z,59.28
2023-03-11T02:27:30.045Z,58.89
2023-03-11T02:28:34.308Z,59.43
2023-03-11T02:29:38.597Z,58.38
2023-03-11T02:30:42.883Z,59.18
2023-03-11T02:31:47.330Z,58.61
2023-03-11T02:32:51.849Z,58.86
2023-03-11T02:33:56.146Z,58.75
2023-03-11T02:35:00.435Z,58.73
2023-03-11T02:36:04.932Z,58.07
2023-03-11T02:37:09.217Z,58.08
2023-03-11T02:38:13.511Z,58.18
2023-03-11T02:39:17.777Z,58.38
2023-03-11T02:40:22.092Z,58.45
2023-03-11T02:41:26.355Z,59.22
2023-03-11T02:42:30.652Z,58.53
2023-03-11T02:43:34.925Z,58.5
2023-03-11T02:44:39.215Z,58.57
2023-03-11T02:45:43.488Z,58.19
2023-03-11T02:46:47.941Z,58.35
2023-03-11T02:47:52.286Z,57.92
2023-03-11T02:48:56.533Z,58.02
2023-03-11T02:50:00.806Z,58.65
2023-03-11T02:51:05.213Z,58.23
2023-03-11T02:52:09.517Z,58.17
2023-03-11T02:53:13.770Z,58.44
2023-03-11T02:54:18.066Z,59.25
2023-03-11T02:55:22.328Z,59.17
2023-03-11T02:56:26.608Z,58.81
2023-03-11T02:57:30.942Z,58.84
2023-03-11T02:58:35.192Z,57.97
2023-03-11T02:59:39.466Z,59.06
2023-03-11T03:00:43.896Z,58.39
2023-03-11T03:01:48.223Z,58.03
2023-03-11T03:02:52.527Z,58.49
2023-03-11T03:03:57.020Z,58.25
2023-03-11T03:05:01.316Z,59.21
2023-03-11T03:06:05.590Z,59.2
2023-03-11T03:07:09.863Z,59.34
2023-03-11T03:08:14.214Z,59.29
2023-03-11T03:09:18.608Z,58.39
2023-03-11T03:10:22.900Z,59.31
2023-03-11T03:11:27.202Z,59.29
2023-03-11T03:12:31.451Z,58.74
2023-03-11T03:13:35.767Z,58.44
2023-03-11T03:14:40.047Z,59.3
2023-03-11T03:15:44.432Z,59.08
2023-03-11T03:16:49.070Z,59.21
2023-03-11T03:17:53.759Z,58.56
2023-03-11T03:18:58.040Z,59.12
2023-03-11T03:20:02.305Z,57.93
2023-03-11T03:21:06.600Z,58.88
2023-03-11T03:22:10.841Z,58.78
2023-03-11T03:23:15.099Z,58.04
2023-03-11T03:24:19.350Z,59.02
2023-03-11T03:25:23.681Z,58.5
2023-03-11T03:26:27.955Z,58.83
2023-03-11T03:27:32.251Z,58.65
2023-03-11T03:28:36.562Z,57.77
2023-03-11T03:29:40.831Z,57.66
2023-03-11T03:30:45.103Z,58.23
2023-03-11T03:31:49.556Z,58.53
2023-03-11T03:32:54.129Z,58.08
2023-03-11T03:33:58.446Z,58.37
2023-03-11T03:35:02.748Z,58.2
2023-03-11T03:36:07.303Z,57.87
2023-03-11T03:37:11.642Z,58.01
2023-03-11T03:38:15.920Z,57.63
2023-03-11T03:39:20.176Z,58.33
2023-03-11T03:40:24.494Z,57.79
2023-03-11T03:41:28.841Z,57.68
2023-03-11T03:42:33.100Z,57.85
2023-03-11T03:43:37.415Z,57.99
2023-03-11T03:44:41.663Z,58.35
2023-03-11T03:45:46.210Z,57.89
2023-03-11T03:46:50.514Z,57.6
2023-03-11T03:47:54.813Z,57.53
2023-03-11T03:48:59.109Z,57.65
2023-03-11T03:50:03.452Z,57.86
2023-03-11T03:51:07.773Z,58.15
2023-03-11T03:52:12.046Z,57.58
2023-03-11T03:53:16.332Z,58.66
2023-03-11T03:54:20.624Z,58.74
2023-03-11T03:55:24.984Z,58.43
2023-03-11T03:56:29.250Z,57.88
2023-03-11T03:57:33.545Z,57.47
2023-03-11T03:58:37.851Z,58.53
2023-03-11T03:59:42.113Z,57.93
2023-03-11T04:00:46.491Z,57.95
2023-03-11T04:01:51.093Z,58.03
2023-03-11T04:02:55.426Z,57.86
2023-03-11T04:03:59.770Z,58.39
2023-03-11T04:05:04.045Z,58.03
2023-03-11T04:06:08.383Z,57.46
2023-03-11T04:07:12.681Z,57.77
2023-03-11T04:08:16.962Z,58.12
2023-03-11T04:09:21.273Z,58.03
2023-03-11T04:10:25.562Z,58.01
2023-03-11T04:11:29.896Z,57.52
2023-03-11T04:12:34.221Z,57.8
2023-03-11T04:13:38.512Z,57.7
2023-03-11T04:14:42.886Z,57.87
2023-03-11T04:15:47.180Z,58.22
2023-03-11T04:16:51.720Z,58.75
2023-03-11T04:17:56.137Z,58.64
2023-03-11T04:19:00.419Z,58.24
2023-03-11T04:20:04.704Z,57.72
2023-03-11T04:21:09.008Z,58.58
2023-03-11T04:22:13.259Z,57.67
2023-03-11T04:23:17.554Z,58.18
2023-03-11T04:24:21.833Z,57.44
2023-03-11T04:25:26.106Z,58.13
2023-03-11T04:26:30.428Z,57.94
2023-03-11T04:27:34.691Z,58.18
2023-03-11T04:28:38.957Z,58.45
2023-03-11T04:29:43.262Z,58.38
2023-03-11T04:30:47.659Z,58.33
2023-03-11T04:31:51.979Z,58.41
2023-03-11T04:32:56.388Z,58.64
2023-03-11T04:34:00.694Z,57.71
2023-03-11T04:35:04.966Z,57.84
2023-03-11T04:36:11.701Z,58.2
2023-03-11T04:37:16.062Z,57.61
2023-03-11T04:38:20.383Z,58.23
2023-03-11T04:39:24.631Z,58.1
2023-03-11T04:40:29.042Z,57.82
2023-03-11T04:41:33.354Z,57.84
2023-03-11T04:42:37.650Z,58.5
2023-03-11T04:43:41.918Z,58.38
2023-03-11T04:44:46.165Z,58.45
2023-03-11T04:45:50.621Z,58.56
2023-03-11T04:46:54.997Z,57.81
2023-03-11T04:47:59.286Z,57.98
2023-03-11T04:49:03.554Z,58.66
2023-03-11T04:50:07.859Z,58.58
2023-03-11T04:51:12.137Z,58.49
2023-03-11T04:52:16.425Z,57.78
2023-03-11T04:53:20.787Z,58.03
2023-03-11T04:54:25.047Z,58.29
2023-03-11T04:55:29.439Z,57.67
2023-03-11T04:56:33.951Z,57.75
2023-03-11T04:57:38.248Z,57.7
2023-03-11T04:58:42.538Z,57.37
2023-03-11T04:59:46.830Z,57.63
2023-03-11T05:00:51.376Z,57.95
2023-03-11T05:01:55.747Z,57.34
2023-03-11T05:03:00.229Z,57.35
2023-03-11T05:04:04.528Z,57.36
2023-03-11T05:05:08.810Z,57.68
2023-03-11T05:06:13.092Z,57.72
2023-03-11T05:07:17.364Z,57.81
2023-03-11T05:08:21.632Z,57.66
2023-03-11T05:09:25.911Z,57.83
2023-03-11T05:10:33.284Z,57.73
2023-03-11T05:11:37.608Z,57.27
2023-03-11T05:12:41.886Z,56.81
2023-03-11T05:13:46.161Z,56.67
2023-03-11T05:14:50.461Z,56.25
2023-03-11T05:15:54.928Z,55.98
2023-03-11T05:16:59.270Z,55.76
2023-03-11T05:18:03.545Z,55.44
2023-03-11T05:19:07.825Z,55.37
2023-03-11T05:20:12.719Z,55.24
2023-03-11T05:21:17.032Z,55.08
2023-03-11T05:22:21.303Z,54.93
2023-03-11T05:23:25.607Z,54.87
2023-03-11T05:24:30.566Z,54.83
2023-03-11T05:25:34.849Z,54.71
2023-03-11T05:26:39.178Z,54.69
2023-03-11T05:27:43.500Z,54.62
2023-03-11T05:28:47.762Z,54.62
2023-03-11T05:29:52.052Z,54.49
2023-03-11T05:30:56.561Z,54.53
2023-03-11T05:32:00.943Z,54.52
2023-03-11T05:33:05.207Z,54.42
2023-03-11T05:34:09.482Z,54.47
2023-03-11T05:35:13.791Z,54.48
2023-03-11T05:36:18.101Z,54.51
2023-03-11T05:37:22.378Z,54.48
2023-03-11T05:38:26.624Z,54.62
2023-03-11T05:39:30.909Z,54.5
2023-03-11T05:40:36.263Z,54.62
2023-03-11T05:41:40.608Z,54.76
2023-03-11T05:42:45.043Z,54.75
2023-03-11T05:43:49.345Z,54.82
2023-03-11T05:44:53.635Z,54.87
2023-03-11T05:45:57.945Z,54.85
2023-03-11T05:47:02.590Z,54.88
2023-03-11T05:48:06.979Z,54.97
2023-03-11T05:49:11.240Z,55.11
2023-03-11T05:50:15.518Z,55.29
2023-03-11T05:51:19.804Z,55.35
2023-03-11T05:52:24.058Z,55.34
2023-03-11T05:53:28.365Z,55.47
2023-03-11T05:54:32.637Z,55.62
2023-03-11T05:55:36.954Z,55.68
2023-03-11T05:56:41.238Z,55.85
2023-03-11T05:57:45.577Z,56.06
2023-03-11T05:58:49.854Z,56.17
2023-03-11T05:59:54.103Z,56.2
2023-03-11T06:01:00.753Z,56.36
2023-03-11T06:02:05.049Z,56.3
2023-03-11T06:03:09.321Z,56.49
2023-03-11T06:04:14.299Z,56.44
2023-03-11T06:05:19.096Z,56.46
2023-03-11T06:06:23.475Z,56.48
2023-03-11T06:07:27.816Z,56.65
2023-03-11T06:08:32.122Z,56.6
2023-03-11T06:09:36.424Z,56.76
2023-03-11T06:10:40.703Z,56.86
2023-03-11T06:11:45.001Z,56.71
2023-03-11T06:12:49.290Z,56.59
2023-03-11T06:13:53.542Z,56.56
2023-03-11T06:14:57.820Z,56.64
2023-03-11T06:16:02.247Z,56.58
2023-03-11T06:17:06.528Z,56.54
2023-03-11T06:18:10.798Z,56.12
2023-03-11T06:19:15.049Z,56.27
2023-03-11T06:20:19.344Z,56.34
2023-03-11T06:21:23.752Z,56.43
2023-03-11T06:22:28.009Z,56.32
2023-03-11T06:23:32.300Z,56.03
2023-03-11T06:24:36.563Z,56.02
2023-03-11T06:25:40.870Z,56.37
2023-03-11T06:26:45.218Z,56.49
2023-03-11T06:27:49.531Z,56.25
2023-03-11T06:28:53.798Z,56.54
2023-03-11T06:29:58.058Z,56.26
2023-03-11T06:31:02.300Z,56.45
2023-03-11T06:32:06.571Z,56.13
2023-03-11T06:33:10.844Z,56.2
2023-03-11T06:34:15.118Z,56.49
2023-03-11T06:35:19.415Z,56.52
2023-03-11T06:36:23.703Z,56.65
2023-03-11T06:37:27.981Z,56.67
2023-03-11T06:38:32.268Z,56.8
2023-03-11T06:39:36.564Z,56.91
2023-03-11T06:40:40.836Z,56.9
2023-03-11T06:41:45.081Z,56.78
2023-03-11T06:42:49.345Z,56.73
2023-03-11T06:43:53.638Z,56.81
2023-03-11T06:44:57.899Z,56.29
2023-03-11T06:46:02.457Z,56.16
2023-03-11T06:47:06.763Z,55.9
2023-03-11T06:48:11.018Z,55.92
2023-03-11T06:49:15.302Z,55.68
2023-03-11T06:50:19.578Z,55.94
2023-03-11T06:51:23.884Z,55.86
2023-03-11T06:52:28.162Z,55.86
2023-03-11T06:53:32.457Z,55.68
2023-03-11T06:54:36.764Z,55.8
2023-03-11T06:55:41.023Z,55.92
2023-03-11T06:56:45.289Z,55.73
2023-03-11T06:57:49.542Z,55.75
2023-03-11T06:58:53.808Z,55.74
2023-03-11T06:59:58.111Z,55.58
2023-03-11T07:01:02.729Z,55.71
2023-03-11T07:02:07.092Z,55.59
2023-03-11T07:03:11.438Z,55.51
2023-03-11T07:04:15.988Z,55.74
2023-03-11T07:05:20.367Z,55.63
2023-03-11T07:06:24.641Z,55.95
2023-03-11T07:07:28.928Z,55.87
2023-03-11T07:08:33.228Z,55.47
2023-03-11T07:09:37.501Z,55.6
2023-03-11T07:10:41.796Z,55.48
2023-03-11T07:11:46.135Z,55.58
2023-03-11T07:12:50.406Z,55.51
2023-03-11T07:13:54.914Z,55.65
2023-03-11T07:15:01.443Z,55.59
2023-03-11T07:16:06.004Z,55.96
2023-03-11T07:17:10.332Z,55.74
2023-03-11T07:18:15.308Z,55.54
2023-03-11T07:19:22.848Z,55.38
2023-03-11T07:20:27.119Z,55.34
2023-03-11T07:21:31.383Z,55.32
2023-03-11T07:22:35.677Z,55.42
2023-03-11T07:23:40.062Z,55.28
2023-03-11T07:24:44.463Z,55.16
2023-03-11T07:25:48.761Z,55.1
2023-03-11T07:26:53.040Z,55.18
2023-03-11T07:27:57.322Z,55.16
2023-03-11T07:29:01.582Z,55.16
2023-03-11T07:30:05.851Z,55.1
2023-03-11T07:31:10.175Z,54.95
2023-03-11T07:32:15.404Z,55.04
2023-03-11T07:33:19.775Z,54.85
2023-03-11T07:34:24.055Z,54.87
2023-03-11T07:35:28.344Z,54.86
2023-03-11T07:36:32.844Z,54.87
2023-03-11T07:37:37.142Z,54.59
2023-03-11T07:38:42.990Z,54.77
2023-03-11T07:39:47.379Z,54.87
2023-03-11T07:40:51.837Z,54.68
2023-03-11T07:41:56.160Z,54.48
2023-03-11T07:43:00.409Z,54.35
2023-03-11T07:44:04.757Z,54.54
2023-03-11T07:45:09.077Z,54.33
2023-03-11T07:46:13.975Z,54.15
2023-03-11T07:47:18.399Z,54.16
2023-03-11T07:48:22.752Z,54.12
2023-03-11T07:49:27.406Z,53.94
2023-03-11T07:50:31.744Z,54.08
2023-03-11T07:51:36.043Z,54.11
2023-03-11T07:52:40.309Z,54.08
2023-03-11T07:53:44.627Z,54.31
2023-03-11T07:54:48.897Z,54.18
2023-03-11T07:55:53.148Z,54.28
2023-03-11T07:56:57.428Z,54.3
2023-03-11T07:58:01.726Z,54.37
2023-03-11T07:59:06.200Z,54.41
2023-03-11T08:00:10.556Z,54.44
2023-03-11T08:01:14.868Z,54.34
2023-03-11T08:02:19.256Z,54.33
2023-03-11T08:03:23.679Z,54.33
2023-03-11T08:04:28.124Z,54.27
2023-03-11T08:05:32.453Z,54.34
2023-03-11T08:06:36.881Z,53.75
2023-03-11T08:07:43.447Z,53.45
2023-03-11T08:08:47.726Z,53.01
2023-03-11T08:09:52.005Z,53.06
2023-03-11T08:10:56.292Z,52.53
2023-03-11T08:12:00.543Z,53.14
2023-03-11T08:13:04.812Z,52.72
2023-03-11T08:14:09.113Z,52.36
2023-03-11T08:15:13.424Z,52.65
2023-03-11T08:16:17.718Z,52.8
2023-03-11T08:17:22.004Z,52.67
2023-03-11T08:18:26.335Z,52.85
2023-03-11T08:19:30.603Z,52.89
2023-03-11T08:20:34.887Z,52.83
2023-03-11T08:21:39.144Z,52.89
2023-03-11T08:22:59.681Z,52.9
2023-03-11T08:24:07.160Z,52.99
2023-03-11T08:25:11.437Z,53.14
2023-03-11T08:26:15.806Z,53.54
2023-03-11T08:27:20.113Z,53.14
2023-03-11T08:28:24.366Z,52.99
2023-03-11T08:29:28.670Z,53.05
2023-03-11T08:30:32.926Z,53.18
2023-03-11T08:31:37.551Z,53.08
2023-03-11T08:32:42.057Z,52.98
2023-03-11T08:33:46.748Z,53
2023-03-11T08:34:51.389Z,52.87
2023-03-11T08:35:56.158Z,52.56
2023-03-11T08:37:00.658Z,52.57
2023-03-11T08:38:04.934Z,52.52
2023-03-11T08:39:09.413Z,52.61
2023-03-11T08:40:13.701Z,52.71
2023-03-11T08:41:17.992Z,52.68
2023-03-11T08:42:22.316Z,52.71
2023-03-11T08:43:26.678Z,52.66
2023-03-11T08:44:30.992Z,52.64
2023-03-11T08:45:35.476Z,52.65
2023-03-11T08:46:40.080Z,52.09
2023-03-11T08:47:44.357Z,52.08
2023-03-11T08:48:48.633Z,51.8
2023-03-11T08:49:52.885Z,51.65
2023-03-11T08:50:57.111Z,51.99
2023-03-11T08:52:01.394Z,51.89
2023-03-11T08:53:05.659Z,52.1
2023-03-11T08:54:09.961Z,51.94
2023-03-11T08:55:14.227Z,52.12
2023-03-11T08:56:18.712Z,52.03
2023-03-11T08:57:23.027Z,52.03
2023-03-11T08:58:27.329Z,52.29
2023-03-11T08:59:31.636Z,52.4
2023-03-11T09:00:35.905Z,52.33
2023-03-11T09:01:40.250Z,52.44
2023-03-11T09:02:44.728Z,52.49
2023-03-11T09:03:49.075Z,52.4
2023-03-11T09:04:53.693Z,52.4
2023-03-11T09:05:58.208Z,52.38
2023-03-11T09:07:02.573Z,52.28
2023-03-11T09:08:07.768Z,52.29
2023-03-11T09:09:12.037Z,52.3
2023-03-11T09:10:16.593Z,52.3
2023-03-11T09:11:20.885Z,52.28
2023-03-11T09:12:25.133Z,52.29
2023-03-11T09:13:29.420Z,52.21
2023-03-11T09:14:33.675Z,51.98
2023-03-11T09:15:37.959Z,51.8
2023-03-11T09:16:42.263Z,51.88
2023-03-11T09:17:46.542Z,51.59
2023-03-11T09:18:50.827Z,51.59
2023-03-11T09:19:55.100Z,51.08
2023-03-11T09:20:59.543Z,51.4
2023-03-11T09:22:03.813Z,51.05
2023-03-11T09:23:08.055Z,50.95
2023-03-11T09:24:12.297Z,50.86
2023-03-11T09:25:16.552Z,50.64
2023-03-11T09:26:20.880Z,50.84
2023-03-11T09:27:25.170Z,51.14
2023-03-11T09:28:29.576Z,50.78
2023-03-11T09:29:34.864Z,50.72
2023-03-11T09:30:42.250Z,50.57
2023-03-11T09:31:46.740Z,50.87
2023-03-11T09:32:51.457Z,50.91
2023-03-11T09:33:55.881Z,51.07
2023-03-11T09:35:00.173Z,51.13
2023-03-11T09:36:04.734Z,51.3
2023-03-11T09:37:09.050Z,51.46
2023-03-11T09:38:13.347Z,51.44
2023-03-11T09:39:17.638Z,51.51
2023-03-11T09:40:21.919Z,51.33
2023-03-11T09:41:26.193Z,51.47
2023-03-11T09:42:30.459Z,51.54
2023-03-11T09:43:34.722Z,51.49
2023-03-11T09:44:39.026Z,51.5
2023-03-11T09:45:43.276Z,51.45
2023-03-11T09:46:48.736Z,51.47
2023-03-11T09:47:53.054Z,51.39
2023-03-11T09:48:57.366Z,51.4
2023-03-11T09:50:01.677Z,51.35
2023-03-11T09:51:05.941Z,51.36
2023-03-11T09:52:10.558Z,51.3
2023-03-11T09:53:14.842Z,51.27
2023-03-11T09:54:19.127Z,51.24
2023-03-11T09:55:23.401Z,51.32
2023-03-11T09:56:27.671Z,51.27
2023-03-11T09:57:31.950Z,51.19
2023-03-11T09:58:36.231Z,51.2
2023-03-11T09:59:40.482Z,51.2
2023-03-11T10:00:45.821Z,51.04
2023-03-11T10:01:50.189Z,51.15
2023-03-11T10:02:55.029Z,51.03
2023-03-11T10:03:59.465Z,51.01
2023-03-11T10:05:03.752Z,51.03
2023-03-11T10:06:08.140Z,50.95
2023-03-11T10:07:12.436Z,50.96
2023-03-11T10:08:19.005Z,50.97
2023-03-11T10:09:23.275Z,50.92
2023-03-11T10:10:27.529Z,50.92
2023-03-11T10:11:31.796Z,50.86
2023-03-11T10:12:36.079Z,50.94
2023-03-11T10:13:40.342Z,50.82
2023-03-11T10:14:44.605Z,50.74
2023-03-11T10:15:49.002Z,50.79
2023-03-11T10:16:53.405Z,50.78
2023-03-11T10:17:57.711Z,50.76
2023-03-11T10:19:02.045Z,50.75
2023-03-11T10:20:06.417Z,50.78
2023-03-11T10:21:10.827Z,50.73
2023-03-11T10:22:15.211Z,50.83
2023-03-11T10:23:19.514Z,50.74
2023-03-11T10:24:24.067Z,50.87
2023-03-11T10:25:28.327Z,50.74
2023-03-11T10:26:32.659Z,50.77
2023-03-11T10:27:36.970Z,50.83
2023-03-11T10:28:41.258Z,50.87
2023-03-11T10:29:45.612Z,50.87
2023-03-11T10:30:50.063Z,50.93
2023-03-11T10:31:54.641Z,50.93
2023-03-11T10:32:59.034Z,51.02
2023-03-11T10:34:03.375Z,50.98
2023-03-11T10:35:07.642Z,51.05
2023-03-11T10:36:12.096Z,51.07
2023-03-11T10:37:16.392Z,50.98
2023-03-11T10:38:20.716Z,50.83
2023-03-11T10:39:25.119Z,50.82
2023-03-11T10:40:29.537Z,50.82
2023-03-11T10:41:33.793Z,50.81
2023-03-11T10:42:38.045Z,50.82
2023-03-11T10:43:42.338Z,50.79
2023-03-11T10:44:46.586Z,50.77
2023-03-11T10:45:51.051Z,50.82
2023-03-11T10:46:57.886Z,50.82
2023-03-11T10:48:02.224Z,50.9
2023-03-11T10:49:06.599Z,50.78
2023-03-11T10:50:10.887Z,50.8
2023-03-11T10:51:15.228Z,50.9
2023-03-11T10:52:20.537Z,50.78
2023-03-11T10:53:24.854Z,50.9
2023-03-11T10:54:29.162Z,50.85
2023-03-11T10:55:33.887Z,50.91
2023-03-11T10:56:38.220Z,50.92
2023-03-11T10:57:42.480Z,50.9
2023-03-11T10:58:46.759Z,50.91
2023-03-11T10:59:55.793Z,51.04
2023-03-11T11:01:00.397Z,50.99
2023-03-11T11:02:04.715Z,50.93
2023-03-11T11:03:09.061Z,50.96
2023-03-11T11:04:13.592Z,51
2023-03-11T11:05:17.983Z,51.08
2023-03-11T11:06:22.298Z,51.05
2023-03-11T11:07:26.718Z,51.03
2023-03-11T11:08:31.001Z,51.06
2023-03-11T11:09:35.265Z,51.19
2023-03-11T11:10:39.526Z,51.11
2023-03-11T11:11:43.815Z,51.14
2023-03-11T11:12:48.084Z,51.05
2023-03-11T11:13:52.431Z,51.15
2023-03-11T11:14:56.689Z,51.09
2023-03-11T11:16:00.991Z,51.15
2023-03-11T11:17:05.340Z,51.08
2023-03-11T11:18:09.624Z,51.1
2023-03-11T11:19:13.928Z,51.03
2023-03-11T11:20:18.305Z,51.02
2023-03-11T11:21:22.638Z,51.1
2023-03-11T11:22:26.903Z,51.08
2023-03-11T11:23:31.163Z,51.1
2023-03-11T11:24:35.474Z,51.07
2023-03-11T11:25:39.766Z,51.1
2023-03-11T11:26:44.042Z,51.12
2023-03-11T11:27:48.437Z,51.23
2023-03-11T11:28:52.724Z,51.16
2023-03-11T11:29:57.017Z,51.13
2023-03-11T11:31:01.535Z,51.17
2023-03-11T11:32:05.893Z,51.16
2023-03-11T11:33:10.184Z,51.24
2023-03-11T11:34:14.488Z,51.23
2023-03-11T11:35:18.824Z,51.22
2023-03-11T11:36:23.101Z,51.16
2023-03-11T11:37:27.355Z,51.22
2023-03-11T11:38:31.631Z,51.24
2023-03-11T11:39:35.926Z,51.32
2023-03-11T11:40:40.193Z,51.32
2023-03-11T11:41:44.459Z,51.35
2023-03-11T11:42:52.008Z,51.14
2023-03-11T11:43:56.293Z,51.29
2023-03-11T11:45:00.581Z,50.92
2023-03-11T11:46:05.025Z,51.03
2023-03-11T11:47:09.385Z,51.05
2023-03-11T11:48:13.678Z,50.98
2023-03-11T11:49:17.968Z,50.98
2023-03-11T11:50:22.278Z,51
2023-03-11T11:51:26.580Z,51.11
2023-03-11T11:52:30.848Z,51.03
2023-03-11T11:53:35.196Z,51.04
2023-03-11T11:54:39.714Z,51.06
2023-03-11T11:55:45.000Z,51.22
2023-03-11T11:56:49.310Z,50.97
2023-03-11T11:57:53.568Z,50.98
2023-03-11T11:58:57.853Z,50.97
2023-03-11T12:00:02.587Z,50.86
2023-03-11T12:01:07.012Z,50.81
2023-03-11T12:02:11.293Z,50.86
2023-03-11T12:03:15.931Z,50.96
2023-03-11T12:04:20.231Z,50.89
2023-03-11T12:05:24.759Z,50.99
2023-03-11T12:06:29.610Z,51.14
2023-03-11T12:07:33.909Z,51.19
2023-03-11T12:08:38.184Z,51.03
2023-03-11T12:09:42.453Z,50.99
2023-03-11T12:10:46.766Z,50.9
2023-03-11T12:11:51.036Z,50.86
2023-03-11T12:12:55.309Z,50.9
2023-03-11T12:13:59.625Z,51.04
2023-03-11T12:15:03.865Z,51.05
2023-03-11T12:16:08.455Z,51.14
2023-03-11T12:17:12.750Z,51.15
2023-03-11T12:18:17.074Z,51.26
2023-03-11T12:19:21.364Z,51.12
2023-03-11T12:20:25.645Z,51.14
2023-03-11T12:21:29.960Z,51.28
2023-03-11T12:22:34.218Z,51.14
2023-03-11T12:23:38.506Z,51.23
2023-03-11T12:24:42.774Z,51.5
2023-03-11T12:25:47.047Z,51.46
2023-03-11T12:26:51.294Z,51.4
2023-03-11T12:27:55.607Z,51.35
2023-03-11T12:29:00.885Z,51.46
2023-03-11T12:30:05.203Z,51.37
2023-03-11T12:31:09.637Z,51.49
2023-03-11T12:32:14.168Z,51.57
2023-03-11T12:33:18.465Z,51.51
2023-03-11T12:34:22.786Z,51.72
2023-03-11T12:35:27.080Z,51.44
2023-03-11T12:36:31.368Z,51.58
2023-03-11T12:37:35.663Z,51.46
2023-03-11T12:38:39.962Z,51.47
2023-03-11T12:39:44.235Z,51.64
2023-03-11T12:40:48.693Z,51.74
2023-03-11T12:41:52.935Z,51.5
2023-03-11T12:42:57.198Z,51.57
2023-03-11T12:44:01.501Z,51.92
2023-03-11T12:45:05.765Z,51.64
2023-03-11T12:46:10.228Z,51.52
2023-03-11T12:47:17.093Z,51.54
2023-03-11T12:48:21.351Z,51.8
2023-03-11T12:49:25.711Z,51.63
2023-03-11T12:50:30.032Z,51.68
2023-03-11T12:51:37.350Z,51.77
2023-03-11T12:52:41.594Z,51.68
2023-03-11T12:53:45.872Z,51.88
2023-03-11T12:54:50.149Z,52.22
2023-03-11T12:55:55.445Z,51.84
2023-03-11T12:56:59.722Z,51.78
2023-03-11T12:58:04.078Z,51.73
2023-03-11T12:59:08.372Z,51.62
2023-03-11T13:00:12.841Z,51.56
2023-03-11T13:01:17.181Z,51.43
2023-03-11T13:02:21.469Z,52.47
2023-03-11T13:03:25.764Z,52.56
2023-03-11T13:04:30.116Z,52.2
2023-03-11T13:05:34.406Z,51.86
2023-03-11T13:06:38.701Z,52.04
2023-03-11T13:07:42.954Z,52.26
2023-03-11T13:08:47.224Z,52.38
2023-03-11T13:09:51.517Z,52.79
2023-03-11T13:10:55.827Z,52.54
2023-03-11T13:12:00.115Z,52.22
2023-03-11T13:13:04.374Z,52.11
2023-03-11T13:14:08.672Z,52.09
2023-03-11T13:15:13.097Z,52.06
2023-03-11T13:16:17.599Z,52.15
2023-03-11T13:17:21.935Z,52.22
2023-03-11T13:18:26.250Z,52.32
2023-03-11T13:19:30.595Z,52.33
2023-03-11T13:20:34.920Z,52.1
2023-03-11T13:21:39.205Z,52.11
2023-03-11T13:22:43.528Z,52.05
2023-03-11T13:23:47.808Z,52.11
2023-03-11T13:24:52.625Z,52.11
2023-03-11T13:25:56.900Z,52.27
2023-03-11T13:27:04.575Z,52.53
2023-03-11T13:28:08.990Z,52.5
2023-03-11T13:29:13.267Z,52.21
2023-03-11T13:30:17.547Z,52.4
2023-03-11T13:31:22.133Z,52.15
2023-03-11T13:32:29.690Z,52.22
2023-03-11T13:33:33.992Z,52.27
2023-03-11T13:34:38.310Z,52.6
2023-03-11T13:35:42.728Z,52.41
2023-03-11T13:36:47.074Z,52.55
2023-03-11T13:37:53.104Z,52.81
2023-03-11T13:38:57.367Z,52.33
2023-03-11T13:40:01.711Z,52.54
2023-03-11T13:41:08.961Z,52.41
2023-03-11T13:42:13.214Z,52.71
2023-03-11T13:43:17.594Z,52.69
2023-03-11T13:44:21.919Z,52.78
2023-03-11T13:45:26.556Z,52.49
2023-03-11T13:46:30.872Z,52.48
2023-03-11T13:47:35.179Z,52.15
2023-03-11T13:48:39.722Z,51.91
2023-03-11T13:49:44.038Z,51.67
2023-03-11T13:50:48.321Z,51.51
2023-03-11T13:51:52.658Z,51.26
2023-03-11T13:52:56.920Z,51.22